sensor_id;sensor_type;location;lat;lon;timestamp;P1;durP1;ratioP1;P2;durP2;ratioP2
10150;SDS011;5116;52.318;4.644;2023-04-15T00:01:37;1.83;;;1.73;;
10150;SDS011;5116;52.318;4.644;2023-04-15T00:04:05;2.83;;;2.00;;
10150;SDS011;5116;52.318;4.644;2023-04-15T00:06:32;2.13;;;1.90;;
10150;SDS011;5116;52.318;4.644;2023-04-15T00:09:00;2.77;;;2.20;;
10150;SDS011;5116;52.318;4.644;2023-04-15T00:11:28;2.30;;;2.10;;
10150;SDS011;5116;52.318;4.644;2023-04-15T00:13:55;2.70;;;2.13;;
10150;SDS011;5116;52.318;4.644;2023-04-15T00:16:23;2.53;;;2.33;;
10150;SDS011;5116;52.318;4.644;2023-04-15T00:18:51;2.27;;;2.07;;
10150;SDS011;5116;52.318;4.644;2023-04-15T00:21:19;2.67;;;2.10;;
10150;SDS011;5116;52.318;4.644;2023-04-15T00:23:46;2.20;;;2.00;;
10150;SDS011;5116;52.318;4.644;2023-04-15T00:26:18;2.67;;;1.93;;
10150;SDS011;5116;52.318;4.644;2023-04-15T00:28:47;3.37;;;2.43;;
10150;SDS011;5116;52.318;4.644;2023-04-15T00:31:15;2.00;;;1.80;;
10150;SDS011;5116;52.318;4.644;2023-04-15T00:33:42;3.13;;;2.20;;
10150;SDS011;5116;52.318;4.644;2023-04-15T00:36:11;2.60;;;2.20;;
10150;SDS011;5116;52.318;4.644;2023-04-15T00:38:38;2.43;;;1.87;;
10150;SDS011;5116;52.318;4.644;2023-04-15T00:41:06;3.00;;;2.20;;
10150;SDS011;5116;52.318;4.644;2023-04-15T00:43:34;3.30;;;2.67;;
10150;SDS011;5116;52.318;4.644;2023-04-15T00:46:03;2.97;;;2.03;;
10150;SDS011;5116;52.318;4.644;2023-04-15T00:48:31;1.80;;;1.70;;
10150;SDS011;5116;52.318;4.644;2023-04-15T00:50:58;2.37;;;2.00;;
10150;SDS011;5116;52.318;4.644;2023-04-15T00:53:26;2.37;;;2.17;;
10150;SDS011;5116;52.318;4.644;2023-04-15T00:55:54;3.23;;;2.37;;
10150;SDS011;5116;52.318;4.644;2023-04-15T00:58:22;1.97;;;1.83;;
10150;SDS011;5116;52.318;4.644;2023-04-15T01:00:49;2.37;;;2.17;;
10150;SDS011;5116;52.318;4.644;2023-04-15T01:03:19;2.33;;;2.10;;
10150;SDS011;5116;52.318;4.644;2023-04-15T01:05:47;2.30;;;2.10;;
10150;SDS011;5116;52.318;4.644;2023-04-15T01:08:16;2.63;;;2.00;;
10150;SDS011;5116;52.318;4.644;2023-04-15T01:10:43;2.30;;;2.10;;
10150;SDS011;5116;52.318;4.644;2023-04-15T01:13:11;2.50;;;2.30;;
10150;SDS011;5116;52.318;4.644;2023-04-15T01:15:38;3.10;;;2.53;;
10150;SDS011;5116;52.318;4.644;2023-04-15T01:18:09;2.33;;;2.13;;
10150;SDS011;5116;52.318;4.644;2023-04-15T01:20:36;2.20;;;2.00;;
10150;SDS011;5116;52.318;4.644;2023-04-15T01:23:04;1.93;;;1.70;;
10150;SDS011;5116;52.318;4.644;2023-04-15T01:25:32;1.93;;;1.83;;
10150;SDS011;5116;52.318;4.644;2023-04-15T01:28:00;4.67;;;2.60;;
10150;SDS011;5116;52.318;4.644;2023-04-15T01:30:28;2.00;;;1.80;;
10150;SDS011;5116;52.318;4.644;2023-04-15T01:32:55;2.43;;;2.00;;
10150;SDS011;5116;52.318;4.644;2023-04-15T01:35:41;2.57;;;2.00;;
10150;SDS011;5116;52.318;4.644;2023-04-15T01:38:13;5.03;;;1.70;;
10150;SDS011;5116;52.318;4.644;2023-04-15T01:40:40;2.67;;;2.13;;
10150;SDS011;5116;52.318;4.644;2023-04-15T01:43:09;1.80;;;1.70;;
10150;SDS011;5116;52.318;4.644;2023-04-15T01:45:38;2.23;;;1.87;;
10150;SDS011;5116;52.318;4.644;2023-04-15T01:48:06;1.80;;;1.70;;
10150;SDS011;5116;52.318;4.644;2023-04-15T01:50:37;2.10;;;1.90;;
10150;SDS011;5116;52.318;4.644;2023-04-15T01:53:06;2.17;;;1.97;;
10150;SDS011;5116;52.318;4.644;2023-04-15T01:55:35;2.67;;;2.03;;
10150;SDS011;5116;52.318;4.644;2023-04-15T01:58:04;2.17;;;1.97;;
10150;SDS011;5116;52.318;4.644;2023-04-15T02:00:33;2.03;;;1.83;;
10150;SDS011;5116;52.318;4.644;2023-04-15T02:03:02;2.27;;;2.07;;
10150;SDS011;5116;52.318;4.644;2023-04-15T02:05:30;2.30;;;2.10;;
10150;SDS011;5116;52.318;4.644;2023-04-15T02:08:00;2.70;;;2.00;;
10150;SDS011;5116;52.318;4.644;2023-04-15T02:10:29;2.43;;;1.97;;
10150;SDS011;5116;52.318;4.644;2023-04-15T02:12:58;2.63;;;2.10;;
10150;SDS011;5116;52.318;4.644;2023-04-15T02:15:28;2.50;;;1.97;;
10150;SDS011;5116;52.318;4.644;2023-04-15T02:17:57;2.20;;;1.97;;
10150;SDS011;5116;52.318;4.644;2023-04-15T02:20:27;1.80;;;1.70;;
10150;SDS011;5116;52.318;4.644;2023-04-15T02:22:58;2.57;;;2.00;;
10150;SDS011;5116;52.318;4.644;2023-04-15T02:25:26;2.30;;;2.00;;
10150;SDS011;5116;52.318;4.644;2023-04-15T02:27:56;1.93;;;1.80;;
10150;SDS011;5116;52.318;4.644;2023-04-15T02:30:25;2.57;;;2.10;;
10150;SDS011;5116;52.318;4.644;2023-04-15T02:32:54;2.53;;;1.87;;
10150;SDS011;5116;52.318;4.644;2023-04-15T02:35:24;2.27;;;1.83;;
10150;SDS011;5116;52.318;4.644;2023-04-15T02:37:53;2.73;;;2.03;;
10150;SDS011;5116;52.318;4.644;2023-04-15T02:40:22;2.60;;;2.40;;
10150;SDS011;5116;52.318;4.644;2023-04-15T02:42:51;4.13;;;2.13;;
10150;SDS011;5116;52.318;4.644;2023-04-15T02:45:20;2.53;;;1.97;;
10150;SDS011;5116;52.318;4.644;2023-04-15T02:47:51;2.30;;;1.83;;
10150;SDS011;5116;52.318;4.644;2023-04-15T02:50:20;2.57;;;1.93;;
10150;SDS011;5116;52.318;4.644;2023-04-15T02:52:50;2.07;;;1.87;;
10150;SDS011;5116;52.318;4.644;2023-04-15T02:55:19;2.17;;;1.97;;
10150;SDS011;5116;52.318;4.644;2023-04-15T02:57:47;2.40;;;2.20;;
10150;SDS011;5116;52.318;4.644;2023-04-15T03:00:17;2.40;;;2.20;;
10150;SDS011;5116;52.318;4.644;2023-04-15T03:02:47;2.30;;;2.10;;
10150;SDS011;5116;52.318;4.644;2023-04-15T03:05:19;2.43;;;2.23;;
10150;SDS011;5116;52.318;4.644;2023-04-15T03:07:50;2.90;;;2.40;;
10150;SDS011;5116;52.318;4.644;2023-04-15T03:10:20;2.20;;;2.00;;
10150;SDS011;5116;52.318;4.644;2023-04-15T03:12:49;4.40;;;1.97;;
10150;SDS011;5116;52.318;4.644;2023-04-15T03:15:20;2.63;;;2.20;;
10150;SDS011;5116;52.318;4.644;2023-04-15T03:17:52;3.40;;;2.60;;
10150;SDS011;5116;52.318;4.644;2023-04-15T03:20:20;2.30;;;2.10;;
10150;SDS011;5116;52.318;4.644;2023-04-15T03:22:50;2.30;;;2.10;;
10150;SDS011;5116;52.318;4.644;2023-04-15T03:25:20;2.40;;;2.20;;
10150;SDS011;5116;52.318;4.644;2023-04-15T03:27:49;3.03;;;2.57;;
10150;SDS011;5116;52.318;4.644;2023-04-15T03:30:18;2.73;;;2.03;;
10150;SDS011;5116;52.318;4.644;2023-04-15T03:32:47;2.00;;;1.80;;
10150;SDS011;5116;52.318;4.644;2023-04-15T03:35:16;2.60;;;2.10;;
10150;SDS011;5116;52.318;4.644;2023-04-15T03:37:45;2.43;;;2.23;;
10150;SDS011;5116;52.318;4.644;2023-04-15T03:40:15;2.30;;;2.10;;
10150;SDS011;5116;52.318;4.644;2023-04-15T03:42:44;2.40;;;2.20;;
10150;SDS011;5116;52.318;4.644;2023-04-15T03:45:13;2.13;;;1.97;;
10150;SDS011;5116;52.318;4.644;2023-04-15T03:47:42;2.43;;;2.00;;
10150;SDS011;5116;52.318;4.644;2023-04-15T03:50:10;3.07;;;2.20;;
10150;SDS011;5116;52.318;4.644;2023-04-15T03:52:39;2.87;;;2.30;;
10150;SDS011;5116;52.318;4.644;2023-04-15T03:55:08;5.03;;;2.37;;
10150;SDS011;5116;52.318;4.644;2023-04-15T03:57:36;2.77;;;2.27;;
10150;SDS011;5116;52.318;4.644;2023-04-15T04:00:06;2.50;;;2.17;;
10150;SDS011;5116;52.318;4.644;2023-04-15T04:02:38;2.50;;;2.20;;
10150;SDS011;5116;52.318;4.644;2023-04-15T04:05:07;3.77;;;2.60;;
10150;SDS011;5116;52.318;4.644;2023-04-15T04:07:36;2.70;;;2.50;;
10150;SDS011;5116;52.318;4.644;2023-04-15T04:10:05;1.93;;;1.63;;
10150;SDS011;5116;52.318;4.644;2023-04-15T04:12:34;2.27;;;2.10;;
10150;SDS011;5116;52.318;4.644;2023-04-15T04:15:03;2.10;;;1.90;;
10150;SDS011;5116;52.318;4.644;2023-04-15T04:17:32;1.83;;;1.73;;
10150;SDS011;5116;52.318;4.644;2023-04-15T04:20:01;2.53;;;2.33;;
10150;SDS011;5116;52.318;4.644;2023-04-15T04:22:29;2.37;;;2.00;;
10150;SDS011;5116;52.318;4.644;2023-04-15T04:24:58;2.40;;;2.20;;
10150;SDS011;5116;52.318;4.644;2023-04-15T04:27:29;2.23;;;2.00;;
10150;SDS011;5116;52.318;4.644;2023-04-15T04:29:57;3.23;;;2.33;;
10150;SDS011;5116;52.318;4.644;2023-04-15T04:32:26;2.57;;;2.20;;
10150;SDS011;5116;52.318;4.644;2023-04-15T04:34:55;2.47;;;2.00;;
10150;SDS011;5116;52.318;4.644;2023-04-15T04:37:24;2.47;;;2.27;;
10150;SDS011;5116;52.318;4.644;2023-04-15T04:39:53;3.93;;;2.20;;
10150;SDS011;5116;52.318;4.644;2023-04-15T04:42:22;2.23;;;1.93;;
10150;SDS011;5116;52.318;4.644;2023-04-15T04:44:50;3.43;;;2.57;;
10150;SDS011;5116;52.318;4.644;2023-04-15T04:47:19;2.37;;;2.17;;
10150;SDS011;5116;52.318;4.644;2023-04-15T04:49:48;2.97;;;2.43;;
10150;SDS011;5116;52.318;4.644;2023-04-15T04:52:17;2.67;;;2.40;;
10150;SDS011;5116;52.318;4.644;2023-04-15T04:54:46;2.87;;;2.13;;
10150;SDS011;5116;52.318;4.644;2023-04-15T04:57:14;2.50;;;2.30;;
10150;SDS011;5116;52.318;4.644;2023-04-15T04:59:43;3.70;;;2.40;;
10150;SDS011;5116;52.318;4.644;2023-04-15T05:02:12;4.83;;;2.57;;
10150;SDS011;5116;52.318;4.644;2023-04-15T05:04:41;2.93;;;2.27;;
10150;SDS011;5116;52.318;4.644;2023-04-15T05:07:09;3.03;;;2.60;;
10150;SDS011;5116;52.318;4.644;2023-04-15T05:09:38;3.43;;;2.47;;
10150;SDS011;5116;52.318;4.644;2023-04-15T05:12:07;3.33;;;2.67;;
10150;SDS011;5116;52.318;4.644;2023-04-15T05:14:41;3.13;;;2.77;;
10150;SDS011;5116;52.318;4.644;2023-04-15T05:17:10;4.50;;;2.90;;
10150;SDS011;5116;52.318;4.644;2023-04-15T05:19:39;3.03;;;2.73;;
10150;SDS011;5116;52.318;4.644;2023-04-15T05:22:07;4.07;;;2.90;;
10150;SDS011;5116;52.318;4.644;2023-04-15T05:24:36;3.33;;;2.83;;
10150;SDS011;5116;52.318;4.644;2023-04-15T05:27:05;2.87;;;2.50;;
10150;SDS011;5116;52.318;4.644;2023-04-15T05:29:35;4.37;;;2.97;;
10150;SDS011;5116;52.318;4.644;2023-04-15T05:32:04;7.17;;;3.40;;
10150;SDS011;5116;52.318;4.644;2023-04-15T05:34:32;3.43;;;3.13;;
10150;SDS011;5116;52.318;4.644;2023-04-15T05:37:01;3.80;;;3.23;;
10150;SDS011;5116;52.318;4.644;2023-04-15T05:39:30;3.00;;;2.70;;
10150;SDS011;5116;52.318;4.644;2023-04-15T05:41:59;3.50;;;3.13;;
10150;SDS011;5116;52.318;4.644;2023-04-15T05:44:28;3.37;;;3.07;;
10150;SDS011;5116;52.318;4.644;2023-04-15T05:46:57;3.30;;;2.90;;
10150;SDS011;5116;52.318;4.644;2023-04-15T05:49:25;3.53;;;3.00;;
10150;SDS011;5116;52.318;4.644;2023-04-15T05:51:54;3.60;;;3.30;;
10150;SDS011;5116;52.318;4.644;2023-04-15T05:54:23;3.47;;;2.90;;
10150;SDS011;5116;52.318;4.644;2023-04-15T05:56:53;4.53;;;3.57;;
10150;SDS011;5116;52.318;4.644;2023-04-15T05:59:24;3.70;;;3.23;;
10150;SDS011;5116;52.318;4.644;2023-04-15T06:01:53;3.80;;;3.30;;
10150;SDS011;5116;52.318;4.644;2023-04-15T06:04:22;4.23;;;3.03;;
10150;SDS011;5116;52.318;4.644;2023-04-15T06:06:51;5.10;;;3.00;;
10150;SDS011;5116;52.318;4.644;2023-04-15T06:09:20;4.53;;;3.50;;
10150;SDS011;5116;52.318;4.644;2023-04-15T06:11:50;3.63;;;3.33;;
10150;SDS011;5116;52.318;4.644;2023-04-15T06:14:19;3.83;;;2.97;;
10150;SDS011;5116;52.318;4.644;2023-04-15T06:16:48;3.37;;;3.07;;
10150;SDS011;5116;52.318;4.644;2023-04-15T06:19:17;3.40;;;3.03;;
10150;SDS011;5116;52.318;4.644;2023-04-15T06:21:46;3.50;;;3.20;;
10150;SDS011;5116;52.318;4.644;2023-04-15T06:24:14;7.27;;;3.30;;
10150;SDS011;5116;52.318;4.644;2023-04-15T06:26:43;3.57;;;2.97;;
10150;SDS011;5116;52.318;4.644;2023-04-15T06:29:12;7.50;;;3.60;;
10150;SDS011;5116;52.318;4.644;2023-04-15T06:31:40;3.37;;;3.07;;
10150;SDS011;5116;52.318;4.644;2023-04-15T06:34:12;4.57;;;3.43;;
10150;SDS011;5116;52.318;4.644;2023-04-15T06:36:41;3.53;;;3.23;;
10150;SDS011;5116;52.318;4.644;2023-04-15T06:39:09;3.73;;;3.10;;
10150;SDS011;5116;52.318;4.644;2023-04-15T06:41:38;3.17;;;2.87;;
10150;SDS011;5116;52.318;4.644;2023-04-15T06:44:11;3.47;;;3.17;;
10150;SDS011;5116;52.318;4.644;2023-04-15T06:47:00;4.90;;;3.47;;
10150;SDS011;5116;52.318;4.644;2023-04-15T06:49:47;3.97;;;3.43;;
10150;SDS011;5116;52.318;4.644;2023-04-15T06:52:22;3.70;;;3.40;;
10150;SDS011;5116;52.318;4.644;2023-04-15T06:54:53;4.87;;;3.53;;
10150;SDS011;5116;52.318;4.644;2023-04-15T06:57:22;3.20;;;2.90;;
10150;SDS011;5116;52.318;4.644;2023-04-15T06:59:51;3.63;;;2.97;;
10150;SDS011;5116;52.318;4.644;2023-04-15T07:02:21;3.80;;;3.40;;
10150;SDS011;5116;52.318;4.644;2023-04-15T07:04:50;4.33;;;3.73;;
10150;SDS011;5116;52.318;4.644;2023-04-15T07:07:19;3.23;;;2.93;;
10150;SDS011;5116;52.318;4.644;2023-04-15T07:09:47;3.73;;;3.40;;
10150;SDS011;5116;52.318;4.644;2023-04-15T07:12:16;3.17;;;2.90;;
10150;SDS011;5116;52.318;4.644;2023-04-15T07:14:45;4.73;;;3.83;;
10150;SDS011;5116;52.318;4.644;2023-04-15T07:17:14;4.07;;;3.63;;
10150;SDS011;5116;52.318;4.644;2023-04-15T07:19:43;4.17;;;3.37;;
10150;SDS011;5116;52.318;4.644;2023-04-15T07:22:12;3.23;;;2.87;;
10150;SDS011;5116;52.318;4.644;2023-04-15T07:24:40;3.87;;;3.20;;
10150;SDS011;5116;52.318;4.644;2023-04-15T07:27:09;3.63;;;3.10;;
10150;SDS011;5116;52.318;4.644;2023-04-15T07:29:38;3.40;;;3.10;;
10150;SDS011;5116;52.318;4.644;2023-04-15T07:32:07;3.33;;;3.03;;
10150;SDS011;5116;52.318;4.644;2023-04-15T07:34:37;3.17;;;2.87;;
10150;SDS011;5116;52.318;4.644;2023-04-15T07:37:09;4.43;;;3.47;;
10150;SDS011;5116;52.318;4.644;2023-04-15T07:39:39;3.90;;;3.07;;
10150;SDS011;5116;52.318;4.644;2023-04-15T07:42:31;4.67;;;3.67;;
10150;SDS011;5116;52.318;4.644;2023-04-15T07:45:02;3.57;;;3.27;;
10150;SDS011;5116;52.318;4.644;2023-04-15T07:47:38;3.27;;;3.00;;
10150;SDS011;5116;52.318;4.644;2023-04-15T07:50:13;3.00;;;2.70;;
10150;SDS011;5116;52.318;4.644;2023-04-15T07:52:56;2.57;;;2.37;;
10150;SDS011;5116;52.318;4.644;2023-04-15T07:55:25;2.50;;;2.30;;
10150;SDS011;5116;52.318;4.644;2023-04-15T07:58:09;3.33;;;2.80;;
10150;SDS011;5116;52.318;4.644;2023-04-15T08:00:38;2.70;;;2.50;;
10150;SDS011;5116;52.318;4.644;2023-04-15T08:03:06;2.57;;;2.23;;
10150;SDS011;5116;52.318;4.644;2023-04-15T08:05:35;2.57;;;2.37;;
10150;SDS011;5116;52.318;4.644;2023-04-15T08:08:04;2.67;;;2.37;;
10150;SDS011;5116;52.318;4.644;2023-04-15T08:10:33;3.47;;;2.53;;
10150;SDS011;5116;52.318;4.644;2023-04-15T08:13:02;3.50;;;2.57;;
10150;SDS011;5116;52.318;4.644;2023-04-15T08:15:30;2.67;;;2.43;;
10150;SDS011;5116;52.318;4.644;2023-04-15T08:18:01;2.73;;;2.53;;
10150;SDS011;5116;52.318;4.644;2023-04-15T08:20:30;2.97;;;2.20;;
10150;SDS011;5116;52.318;4.644;2023-04-15T08:22:59;2.97;;;2.47;;
10150;SDS011;5116;52.318;4.644;2023-04-15T08:25:28;2.93;;;2.67;;
10150;SDS011;5116;52.318;4.644;2023-04-15T08:27:56;3.20;;;2.83;;
10150;SDS011;5116;52.318;4.644;2023-04-15T08:30:25;4.67;;;2.70;;
10150;SDS011;5116;52.318;4.644;2023-04-15T08:32:54;2.87;;;2.57;;
10150;SDS011;5116;52.318;4.644;2023-04-15T08:35:23;3.20;;;2.63;;
10150;SDS011;5116;52.318;4.644;2023-04-15T08:37:52;5.63;;;2.80;;
10150;SDS011;5116;52.318;4.644;2023-04-15T08:40:21;2.87;;;2.47;;
10150;SDS011;5116;52.318;4.644;2023-04-15T08:42:50;2.83;;;2.23;;
10150;SDS011;5116;52.318;4.644;2023-04-15T08:45:22;3.13;;;2.43;;
10150;SDS011;5116;52.318;4.644;2023-04-15T08:47:51;3.20;;;2.90;;
10150;SDS011;5116;52.318;4.644;2023-04-15T08:50:23;4.67;;;3.10;;
10150;SDS011;5116;52.318;4.644;2023-04-15T08:52:55;3.03;;;2.60;;
10150;SDS011;5116;52.318;4.644;2023-04-15T08:55:27;2.83;;;2.37;;
10150;SDS011;5116;52.318;4.644;2023-04-15T08:57:58;3.67;;;2.57;;
10150;SDS011;5116;52.318;4.644;2023-04-15T09:00:27;2.70;;;2.40;;
10150;SDS011;5116;52.318;4.644;2023-04-15T09:02:57;3.70;;;2.60;;
10150;SDS011;5116;52.318;4.644;2023-04-15T09:05:26;2.40;;;2.17;;
10150;SDS011;5116;52.318;4.644;2023-04-15T09:07:59;2.70;;;2.20;;
10150;SDS011;5116;52.318;4.644;2023-04-15T09:10:28;2.57;;;2.33;;
10150;SDS011;5116;52.318;4.644;2023-04-15T09:13:00;2.33;;;1.97;;
10150;SDS011;5116;52.318;4.644;2023-04-15T09:15:30;2.43;;;2.10;;
10150;SDS011;5116;52.318;4.644;2023-04-15T09:18:00;3.60;;;2.03;;
10150;SDS011;5116;52.318;4.644;2023-04-15T09:20:29;2.10;;;1.90;;
10150;SDS011;5116;52.318;4.644;2023-04-15T09:22:58;2.63;;;2.03;;
10150;SDS011;5116;52.318;4.644;2023-04-15T09:25:28;1.87;;;1.70;;
10150;SDS011;5116;52.318;4.644;2023-04-15T09:28:02;3.63;;;2.40;;
10150;SDS011;5116;52.318;4.644;2023-04-15T09:30:31;2.33;;;1.80;;
10150;SDS011;5116;52.318;4.644;2023-04-15T09:33:01;2.70;;;2.33;;
10150;SDS011;5116;52.318;4.644;2023-04-15T09:35:35;2.23;;;2.03;;
10150;SDS011;5116;52.318;4.644;2023-04-15T09:38:08;2.00;;;1.70;;
10150;SDS011;5116;52.318;4.644;2023-04-15T09:40:43;2.10;;;1.90;;
10150;SDS011;5116;52.318;4.644;2023-04-15T09:43:13;1.80;;;1.67;;
10150;SDS011;5116;52.318;4.644;2023-04-15T09:45:46;2.77;;;2.40;;
10150;SDS011;5116;52.318;4.644;2023-04-15T09:48:22;1.73;;;1.60;;
10150;SDS011;5116;52.318;4.644;2023-04-15T09:50:57;2.57;;;1.90;;
10150;SDS011;5116;52.318;4.644;2023-04-15T09:53:35;2.07;;;1.90;;
10150;SDS011;5116;52.318;4.644;2023-04-15T09:56:05;1.87;;;1.57;;
10150;SDS011;5116;52.318;4.644;2023-04-15T09:58:40;1.70;;;1.60;;
10150;SDS011;5116;52.318;4.644;2023-04-15T10:01:15;1.83;;;1.70;;
10150;SDS011;5116;52.318;4.644;2023-04-15T10:03:46;2.00;;;1.80;;
10150;SDS011;5116;52.318;4.644;2023-04-15T10:06:18;1.83;;;1.70;;
10150;SDS011;5116;52.318;4.644;2023-04-15T10:08:48;1.87;;;1.60;;
10150;SDS011;5116;52.318;4.644;2023-04-15T10:11:20;2.40;;;1.90;;
10150;SDS011;5116;52.318;4.644;2023-04-15T10:13:50;1.90;;;1.80;;
10150;SDS011;5116;52.318;4.644;2023-04-15T10:16:20;2.77;;;2.10;;
10150;SDS011;5116;52.318;4.644;2023-04-15T10:19:09;2.20;;;1.97;;
10150;SDS011;5116;52.318;4.644;2023-04-15T10:21:45;2.17;;;1.80;;
10150;SDS011;5116;52.318;4.644;2023-04-15T10:24:19;2.10;;;1.90;;
10150;SDS011;5116;52.318;4.644;2023-04-15T10:27:19;2.93;;;1.90;;
10150;SDS011;5116;52.318;4.644;2023-04-15T10:29:50;2.00;;;1.67;;
10150;SDS011;5116;52.318;4.644;2023-04-15T10:32:46;1.60;;;1.50;;
10150;SDS011;5116;52.318;4.644;2023-04-15T10:35:19;1.80;;;1.50;;
10150;SDS011;5116;52.318;4.644;2023-04-15T10:37:49;2.70;;;1.97;;
10150;SDS011;5116;52.318;4.644;2023-04-15T10:40:31;1.70;;;1.60;;
10150;SDS011;5116;52.318;4.644;2023-04-15T10:43:24;1.90;;;1.60;;
10150;SDS011;5116;52.318;4.644;2023-04-15T10:45:56;1.67;;;1.57;;
10150;SDS011;5116;52.318;4.644;2023-04-15T10:48:25;2.03;;;1.80;;
10150;SDS011;5116;52.318;4.644;2023-04-15T10:50:56;2.80;;;2.03;;
10150;SDS011;5116;52.318;4.644;2023-04-15T10:53:34;1.93;;;1.83;;
10150;SDS011;5116;52.318;4.644;2023-04-15T10:56:04;2.37;;;1.83;;
10150;SDS011;5116;52.318;4.644;2023-04-15T10:58:43;2.27;;;1.80;;
10150;SDS011;5116;52.318;4.644;2023-04-15T11:01:12;2.23;;;2.00;;
10150;SDS011;5116;52.318;4.644;2023-04-15T11:03:41;1.60;;;1.47;;
10150;SDS011;5116;52.318;4.644;2023-04-15T11:06:11;4.07;;;1.67;;
10150;SDS011;5116;52.318;4.644;2023-04-15T11:08:55;2.70;;;1.90;;
10150;SDS011;5116;52.318;4.644;2023-04-15T11:12:03;3.03;;;2.07;;
10150;SDS011;5116;52.318;4.644;2023-04-15T11:14:16;2.17;;;1.93;;
10150;SDS011;5116;52.318;4.644;2023-04-15T11:16:44;1.77;;;1.60;;
10150;SDS011;5116;52.318;4.644;2023-04-15T11:19:13;1.80;;;1.70;;
10150;SDS011;5116;52.318;4.644;2023-04-15T11:21:42;2.67;;;2.00;;
10150;SDS011;5116;52.318;4.644;2023-04-15T11:24:11;2.10;;;1.90;;
10150;SDS011;5116;52.318;4.644;2023-04-15T11:26:56;2.13;;;1.60;;
10150;SDS011;5116;52.318;4.644;2023-04-15T11:29:30;3.30;;;1.80;;
10150;SDS011;5116;52.318;4.644;2023-04-15T11:32:05;1.97;;;1.70;;
10150;SDS011;5116;52.318;4.644;2023-04-15T11:34:39;1.67;;;1.57;;
10150;SDS011;5116;52.318;4.644;2023-04-15T11:37:07;1.83;;;1.60;;
10150;SDS011;5116;52.318;4.644;2023-04-15T11:39:37;1.47;;;1.30;;
10150;SDS011;5116;52.318;4.644;2023-04-15T11:42:15;2.50;;;1.33;;
10150;SDS011;5116;52.318;4.644;2023-04-15T11:44:44;2.43;;;1.47;;
10150;SDS011;5116;52.318;4.644;2023-04-15T11:47:22;1.40;;;1.30;;
10150;SDS011;5116;52.318;4.644;2023-04-15T11:49:51;1.23;;;1.13;;
10150;SDS011;5116;52.318;4.644;2023-04-15T11:52:21;1.90;;;1.50;;
10150;SDS011;5116;52.318;4.644;2023-04-15T11:54:51;1.70;;;1.40;;
10150;SDS011;5116;52.318;4.644;2023-04-15T11:57:18;1.30;;;1.20;;
10150;SDS011;5116;52.318;4.644;2023-04-15T11:59:46;1.23;;;1.13;;
10150;SDS011;5116;52.318;4.644;2023-04-15T12:02:29;1.33;;;1.23;;
10150;SDS011;5116;52.318;4.644;2023-04-15T12:05:04;1.40;;;1.30;;
10150;SDS011;5116;52.318;4.644;2023-04-15T12:07:32;1.17;;;1.10;;
10150;SDS011;5116;52.318;4.644;2023-04-15T12:10:01;1.30;;;1.20;;
10150;SDS011;5116;52.318;4.644;2023-04-15T12:12:29;1.27;;;1.17;;
10150;SDS011;5116;52.318;4.644;2023-04-15T12:14:59;2.07;;;1.20;;
10150;SDS011;5116;52.318;4.644;2023-04-15T12:17:27;1.30;;;1.20;;
10150;SDS011;5116;52.318;4.644;2023-04-15T12:20:24;2.37;;;1.30;;
10150;SDS011;5116;52.318;4.644;2023-04-15T12:23:20;1.37;;;1.27;;
10150;SDS011;5116;52.318;4.644;2023-04-15T12:25:54;1.00;;;1.00;;
10150;SDS011;5116;52.318;4.644;2023-04-15T12:28:24;1.30;;;1.20;;
10150;SDS011;5116;52.318;4.644;2023-04-15T12:31:10;1.30;;;1.20;;
10150;SDS011;5116;52.318;4.644;2023-04-15T12:33:39;1.00;;;1.00;;
10150;SDS011;5116;52.318;4.644;2023-04-15T12:36:07;1.50;;;1.40;;
10150;SDS011;5116;52.318;4.644;2023-04-15T12:38:34;1.27;;;1.17;;
10150;SDS011;5116;52.318;4.644;2023-04-15T12:41:02;1.10;;;1.00;;
10150;SDS011;5116;52.318;4.644;2023-04-15T12:43:29;1.47;;;1.20;;
10150;SDS011;5116;52.318;4.644;2023-04-15T12:45:57;1.30;;;1.20;;
10150;SDS011;5116;52.318;4.644;2023-04-15T12:48:24;1.33;;;1.23;;
10150;SDS011;5116;52.318;4.644;2023-04-15T12:50:52;1.37;;;1.27;;
10150;SDS011;5116;52.318;4.644;2023-04-15T12:53:19;1.60;;;1.40;;
10150;SDS011;5116;52.318;4.644;2023-04-15T12:55:47;1.47;;;1.30;;
10150;SDS011;5116;52.318;4.644;2023-04-15T12:58:14;1.63;;;1.23;;
10150;SDS011;5116;52.318;4.644;2023-04-15T13:00:42;1.93;;;1.10;;
10150;SDS011;5116;52.318;4.644;2023-04-15T13:03:10;1.37;;;1.27;;
10150;SDS011;5116;52.318;4.644;2023-04-15T13:05:38;1.50;;;1.40;;
10150;SDS011;5116;52.318;4.644;2023-04-15T13:08:05;1.17;;;1.07;;
10150;SDS011;5116;52.318;4.644;2023-04-15T13:10:34;1.27;;;1.17;;
10150;SDS011;5116;52.318;4.644;2023-04-15T13:13:04;0.90;;;0.90;;
10150;SDS011;5116;52.318;4.644;2023-04-15T13:15:32;1.00;;;1.00;;
10150;SDS011;5116;52.318;4.644;2023-04-15T13:17:59;1.20;;;1.10;;
10150;SDS011;5116;52.318;4.644;2023-04-15T13:20:27;1.40;;;1.30;;
10150;SDS011;5116;52.318;4.644;2023-04-15T13:22:54;1.30;;;1.20;;
10150;SDS011;5116;52.318;4.644;2023-04-15T13:25:22;1.30;;;1.10;;
10150;SDS011;5116;52.318;4.644;2023-04-15T13:27:49;1.53;;;1.23;;
10150;SDS011;5116;52.318;4.644;2023-04-15T13:30:16;1.27;;;0.90;;
10150;SDS011;5116;52.318;4.644;2023-04-15T13:32:44;1.27;;;1.10;;
10150;SDS011;5116;52.318;4.644;2023-04-15T13:35:14;1.57;;;1.40;;
10150;SDS011;5116;52.318;4.644;2023-04-15T13:37:41;1.67;;;1.10;;
10150;SDS011;5116;52.318;4.644;2023-04-15T13:40:09;1.07;;;1.03;;
10150;SDS011;5116;52.318;4.644;2023-04-15T13:42:37;0.97;;;0.90;;
10150;SDS011;5116;52.318;4.644;2023-04-15T13:45:04;1.20;;;1.00;;
10150;SDS011;5116;52.318;4.644;2023-04-15T13:47:32;1.10;;;1.00;;
10150;SDS011;5116;52.318;4.644;2023-04-15T13:50:00;1.10;;;1.00;;
10150;SDS011;5116;52.318;4.644;2023-04-15T13:52:27;0.80;;;0.80;;
10150;SDS011;5116;52.318;4.644;2023-04-15T13:54:54;1.43;;;1.13;;
10150;SDS011;5116;52.318;4.644;2023-04-15T13:57:42;2.10;;;1.07;;
10150;SDS011;5116;52.318;4.644;2023-04-15T14:00:10;3.17;;;0.90;;
10150;SDS011;5116;52.318;4.644;2023-04-15T14:02:38;1.00;;;1.00;;
10150;SDS011;5116;52.318;4.644;2023-04-15T14:05:07;1.33;;;1.23;;
10150;SDS011;5116;52.318;4.644;2023-04-15T14:07:34;0.93;;;0.93;;
10150;SDS011;5116;52.318;4.644;2023-04-15T14:10:02;1.27;;;0.90;;
10150;SDS011;5116;52.318;4.644;2023-04-15T14:12:30;1.30;;;1.20;;
10150;SDS011;5116;52.318;4.644;2023-04-15T14:14:58;1.03;;;1.00;;
10150;SDS011;5116;52.318;4.644;2023-04-15T14:17:25;1.10;;;1.00;;
10150;SDS011;5116;52.318;4.644;2023-04-15T14:19:53;1.03;;;1.00;;
10150;SDS011;5116;52.318;4.644;2023-04-15T14:22:20;1.30;;;1.20;;
10150;SDS011;5116;52.318;4.644;2023-04-15T14:24:48;1.20;;;0.90;;
10150;SDS011;5116;52.318;4.644;2023-04-15T14:27:18;1.40;;;1.00;;
10150;SDS011;5116;52.318;4.644;2023-04-15T14:29:45;0.90;;;0.90;;
10150;SDS011;5116;52.318;4.644;2023-04-15T14:32:13;1.30;;;1.20;;
10150;SDS011;5116;52.318;4.644;2023-04-15T14:34:42;0.97;;;0.93;;
10150;SDS011;5116;52.318;4.644;2023-04-15T14:37:10;1.20;;;1.00;;
10150;SDS011;5116;52.318;4.644;2023-04-15T14:39:37;1.00;;;1.00;;
10150;SDS011;5116;52.318;4.644;2023-04-15T14:42:05;1.30;;;1.07;;
10150;SDS011;5116;52.318;4.644;2023-04-15T14:44:32;1.20;;;1.10;;
10150;SDS011;5116;52.318;4.644;2023-04-15T14:47:00;1.70;;;1.03;;
10150;SDS011;5116;52.318;4.644;2023-04-15T14:49:27;1.07;;;1.00;;
10150;SDS011;5116;52.318;4.644;2023-04-15T14:51:55;3.20;;;1.10;;
10150;SDS011;5116;52.318;4.644;2023-04-15T14:54:23;0.90;;;0.90;;
10150;SDS011;5116;52.318;4.644;2023-04-15T14:56:50;1.10;;;1.00;;
10150;SDS011;5116;52.318;4.644;2023-04-15T14:59:18;0.93;;;0.93;;
10150;SDS011;5116;52.318;4.644;2023-04-15T15:01:45;0.87;;;0.87;;
10150;SDS011;5116;52.318;4.644;2023-04-15T15:04:13;1.17;;;1.07;;
10150;SDS011;5116;52.318;4.644;2023-04-15T15:06:41;1.20;;;1.10;;
10150;SDS011;5116;52.318;4.644;2023-04-15T15:09:08;1.80;;;1.20;;
10150;SDS011;5116;52.318;4.644;2023-04-15T15:11:36;1.57;;;1.30;;
10150;SDS011;5116;52.318;4.644;2023-04-15T15:14:03;1.20;;;1.10;;
10150;SDS011;5116;52.318;4.644;2023-04-15T15:16:31;1.13;;;1.10;;
10150;SDS011;5116;52.318;4.644;2023-04-15T15:18:58;3.40;;;1.23;;